sensor_id;sensor_type;location;lat;lon;timestamp;P1;durP1;ratioP1;P2;durP2;ratioP2
42700;SDS011;28316;49.504;8.526;2023-01-08T00:02:22;4.75;;;2.67;;
42700;SDS011;28316;49.504;8.526;2023-01-08T00:04:48;7.10;;;2.65;;
42700;SDS011;28316;49.504;8.526;2023-01-08T00:07:14;3.17;;;2.08;;
42700;SDS011;28316;49.504;8.526;2023-01-08T00:09:40;6.03;;;2.38;;
42700;SDS011;28316;49.504;8.526;2023-01-08T00:12:05;4.05;;;2.35;;
42700;SDS011;28316;49.504;8.526;2023-01-08T00:14:31;5.30;;;2.60;;
42700;SDS011;28316;49.504;8.526;2023-01-08T00:16:57;5.90;;;2.40;;
42700;SDS011;28316;49.504;8.526;2023-01-08T00:19:22;4.72;;;1.70;;
42700;SDS011;28316;49.504;8.526;2023-01-08T00:21:48;7.40;;;3.22;;
42700;SDS011;28316;49.504;8.526;2023-01-08T00:24:14;4.32;;;2.75;;
42700;SDS011;28316;49.504;8.526;2023-01-08T00:26:40;4.20;;;2.60;;
42700;SDS011;28316;49.504;8.526;2023-01-08T00:29:05;6.35;;;2.38;;
42700;SDS011;28316;49.504;8.526;2023-01-08T00:31:31;8.68;;;3.25;;
42700;SDS011;28316;49.504;8.526;2023-01-08T00:33:57;6.55;;;3.08;;
42700;SDS011;28316;49.504;8.526;2023-01-08T00:36:23;5.80;;;2.53;;
42700;SDS011;28316;49.504;8.526;2023-01-08T00:38:48;5.70;;;2.70;;
42700;SDS011;28316;49.504;8.526;2023-01-08T00:41:15;4.10;;;2.60;;
42700;SDS011;28316;49.504;8.526;2023-01-08T00:43:41;4.90;;;2.55;;
42700;SDS011;28316;49.504;8.526;2023-01-08T00:46:07;3.05;;;2.13;;
42700;SDS011;28316;49.504;8.526;2023-01-08T00:48:33;4.15;;;2.55;;
42700;SDS011;28316;49.504;8.526;2023-01-08T00:51:02;4.82;;;2.13;;
42700;SDS011;28316;49.504;8.526;2023-01-08T00:53:30;5.20;;;2.00;;
42700;SDS011;28316;49.504;8.526;2023-01-08T00:56:03;3.63;;;1.88;;
42700;SDS011;28316;49.504;8.526;2023-01-08T00:58:31;9.35;;;2.38;;
42700;SDS011;28316;49.504;8.526;2023-01-08T01:00:58;4.70;;;2.30;;
42700;SDS011;28316;49.504;8.526;2023-01-08T01:03:24;4.07;;;2.78;;
42700;SDS011;28316;49.504;8.526;2023-01-08T01:05:58;5.20;;;2.20;;
42700;SDS011;28316;49.504;8.526;2023-01-08T01:08:25;4.03;;;2.05;;
42700;SDS011;28316;49.504;8.526;2023-01-08T01:10:51;5.50;;;2.00;;
42700;SDS011;28316;49.504;8.526;2023-01-08T01:13:17;4.90;;;2.55;;
42700;SDS011;28316;49.504;8.526;2023-01-08T01:15:42;3.85;;;1.83;;
42700;SDS011;28316;49.504;8.526;2023-01-08T01:18:08;4.50;;;2.50;;
42700;SDS011;28316;49.504;8.526;2023-01-08T01:20:34;5.07;;;1.75;;
42700;SDS011;28316;49.504;8.526;2023-01-08T01:23:00;2.88;;;1.60;;
42700;SDS011;28316;49.504;8.526;2023-01-08T01:25:27;4.93;;;2.25;;
42700;SDS011;28316;49.504;8.526;2023-01-08T01:27:53;2.65;;;1.52;;
42700;SDS011;28316;49.504;8.526;2023-01-08T01:30:19;7.75;;;1.85;;
42700;SDS011;28316;49.504;8.526;2023-01-08T01:32:44;6.47;;;2.40;;
42700;SDS011;28316;49.504;8.526;2023-01-08T01:35:10;3.85;;;2.05;;
42700;SDS011;28316;49.504;8.526;2023-01-08T01:37:36;4.30;;;2.22;;
42700;SDS011;28316;49.504;8.526;2023-01-08T01:40:02;5.20;;;2.15;;
42700;SDS011;28316;49.504;8.526;2023-01-08T01:42:30;3.00;;;1.50;;
42700;SDS011;28316;49.504;8.526;2023-01-08T01:45:15;5.93;;;2.20;;
42700;SDS011;28316;49.504;8.526;2023-01-08T01:48:02;4.53;;;2.33;;
42700;SDS011;28316;49.504;8.526;2023-01-08T01:50:41;4.50;;;2.83;;
42700;SDS011;28316;49.504;8.526;2023-01-08T01:55:53;7.72;;;2.10;;
42700;SDS011;28316;49.504;8.526;2023-01-08T02:00:48;3.65;;;2.67;;
42700;SDS011;28316;49.504;8.526;2023-01-08T02:03:19;4.30;;;2.20;;
42700;SDS011;28316;49.504;8.526;2023-01-08T02:08:48;2.95;;;1.70;;
42700;SDS011;28316;49.504;8.526;2023-01-08T02:11:59;4.25;;;2.13;;
42700;SDS011;28316;49.504;8.526;2023-01-08T02:14:58;5.70;;;2.60;;
42700;SDS011;28316;49.504;8.526;2023-01-08T02:20:30;4.78;;;1.73;;
42700;SDS011;28316;49.504;8.526;2023-01-08T02:23:07;8.15;;;1.85;;
42700;SDS011;28316;49.504;8.526;2023-01-08T02:28:42;2.78;;;1.67;;
42700;SDS011;28316;49.504;8.526;2023-01-08T02:31:34;5.07;;;2.38;;
42700;SDS011;28316;49.504;8.526;2023-01-08T02:34:03;4.25;;;2.03;;
42700;SDS011;28316;49.504;8.526;2023-01-08T02:42:10;3.10;;;1.60;;
42700;SDS011;28316;49.504;8.526;2023-01-08T02:53:52;2.78;;;1.65;;
42700;SDS011;28316;49.504;8.526;2023-01-08T02:56:23;5.05;;;2.08;;
42700;SDS011;28316;49.504;8.526;2023-01-08T02:58:54;5.05;;;2.53;;
42700;SDS011;28316;49.504;8.526;2023-01-08T03:01:22;4.68;;;2.50;;
42700;SDS011;28316;49.504;8.526;2023-01-08T03:03:50;6.38;;;1.85;;
42700;SDS011;28316;49.504;8.526;2023-01-08T03:06:20;3.63;;;1.50;;
42700;SDS011;28316;49.504;8.526;2023-01-08T03:08:48;2.95;;;2.25;;
42700;SDS011;28316;49.504;8.526;2023-01-08T03:11:17;4.28;;;1.83;;
42700;SDS011;28316;49.504;8.526;2023-01-08T03:16:20;4.10;;;2.25;;
42700;SDS011;28316;49.504;8.526;2023-01-08T03:19:01;4.65;;;2.67;;
42700;SDS011;28316;49.504;8.526;2023-01-08T03:21:37;3.95;;;2.30;;
42700;SDS011;28316;49.504;8.526;2023-01-08T03:24:06;6.32;;;2.20;;
42700;SDS011;28316;49.504;8.526;2023-01-08T03:26:34;5.82;;;2.08;;
42700;SDS011;28316;49.504;8.526;2023-01-08T03:29:03;3.70;;;2.20;;
42700;SDS011;28316;49.504;8.526;2023-01-08T03:31:30;5.43;;;2.42;;
42700;SDS011;28316;49.504;8.526;2023-01-08T03:33:59;5.35;;;2.20;;
42700;SDS011;28316;49.504;8.526;2023-01-08T03:36:27;4.32;;;1.63;;
42700;SDS011;28316;49.504;8.526;2023-01-08T03:38:56;4.22;;;2.20;;
42700;SDS011;28316;49.504;8.526;2023-01-08T03:41:29;3.78;;;2.42;;
42700;SDS011;28316;49.504;8.526;2023-01-08T03:43:58;4.78;;;2.22;;
42700;SDS011;28316;49.504;8.526;2023-01-08T03:46:28;2.90;;;1.45;;
42700;SDS011;28316;49.504;8.526;2023-01-08T03:48:58;7.75;;;2.30;;
42700;SDS011;28316;49.504;8.526;2023-01-08T03:51:25;3.75;;;2.15;;
42700;SDS011;28316;49.504;8.526;2023-01-08T03:53:51;2.95;;;1.73;;
42700;SDS011;28316;49.504;8.526;2023-01-08T03:56:22;4.50;;;2.10;;
42700;SDS011;28316;49.504;8.526;2023-01-08T03:58:48;2.53;;;1.55;;
42700;SDS011;28316;49.504;8.526;2023-01-08T04:01:13;5.32;;;1.70;;
42700;SDS011;28316;49.504;8.526;2023-01-08T04:03:39;3.72;;;1.80;;
42700;SDS011;28316;49.504;8.526;2023-01-08T04:06:05;9.48;;;2.53;;
42700;SDS011;28316;49.504;8.526;2023-01-08T04:08:31;3.50;;;1.80;;
42700;SDS011;28316;49.504;8.526;2023-01-08T04:10:56;3.05;;;1.75;;
42700;SDS011;28316;49.504;8.526;2023-01-08T04:13:22;5.88;;;2.17;;
42700;SDS011;28316;49.504;8.526;2023-01-08T04:15:48;3.72;;;2.10;;
42700;SDS011;28316;49.504;8.526;2023-01-08T04:18:16;2.95;;;2.03;;
42700;SDS011;28316;49.504;8.526;2023-01-08T04:20:45;4.15;;;1.98;;
42700;SDS011;28316;49.504;8.526;2023-01-08T04:23:12;3.22;;;1.60;;
42700;SDS011;28316;49.504;8.526;2023-01-08T04:25:38;2.30;;;1.52;;
42700;SDS011;28316;49.504;8.526;2023-01-08T04:28:04;5.43;;;2.20;;
42700;SDS011;28316;49.504;8.526;2023-01-08T04:30:30;3.97;;;2.08;;
42700;SDS011;28316;49.504;8.526;2023-01-08T04:32:55;3.45;;;1.58;;
42700;SDS011;28316;49.504;8.526;2023-01-08T04:35:21;7.75;;;2.65;;
42700;SDS011;28316;49.504;8.526;2023-01-08T04:37:47;2.05;;;1.20;;
42700;SDS011;28316;49.504;8.526;2023-01-08T04:40:13;3.42;;;1.70;;
42700;SDS011;28316;49.504;8.526;2023-01-08T04:42:39;3.58;;;2.05;;
42700;SDS011;28316;49.504;8.526;2023-01-08T04:45:05;3.30;;;1.73;;
42700;SDS011;28316;49.504;8.526;2023-01-08T04:47:31;8.15;;;2.25;;
42700;SDS011;28316;49.504;8.526;2023-01-08T04:49:57;4.50;;;2.53;;
42700;SDS011;28316;49.504;8.526;2023-01-08T04:52:23;3.47;;;1.52;;
42700;SDS011;28316;49.504;8.526;2023-01-08T04:54:49;1.92;;;1.35;;
42700;SDS011;28316;49.504;8.526;2023-01-08T04:57:14;6.68;;;1.90;;
42700;SDS011;28316;49.504;8.526;2023-01-08T04:59:40;3.55;;;1.95;;
42700;SDS011;28316;49.504;8.526;2023-01-08T05:02:06;3.55;;;2.08;;
42700;SDS011;28316;49.504;8.526;2023-01-08T05:04:31;4.05;;;1.50;;
42700;SDS011;28316;49.504;8.526;2023-01-08T05:06:57;2.85;;;1.98;;
42700;SDS011;28316;49.504;8.526;2023-01-08T05:09:23;3.35;;;1.98;;
42700;SDS011;28316;49.504;8.526;2023-01-08T05:11:49;4.40;;;1.75;;
42700;SDS011;28316;49.504;8.526;2023-01-08T05:14:14;4.68;;;2.05;;
42700;SDS011;28316;49.504;8.526;2023-01-08T05:16:40;2.95;;;1.55;;
42700;SDS011;28316;49.504;8.526;2023-01-08T05:19:06;3.53;;;1.90;;
42700;SDS011;28316;49.504;8.526;2023-01-08T05:21:32;3.03;;;1.75;;
42700;SDS011;28316;49.504;8.526;2023-01-08T05:23:57;5.50;;;2.20;;
42700;SDS011;28316;49.504;8.526;2023-01-08T05:26:23;3.22;;;1.77;;
42700;SDS011;28316;49.504;8.526;2023-01-08T05:28:49;8.60;;;2.63;;
42700;SDS011;28316;49.504;8.526;2023-01-08T05:31:15;7.50;;;2.33;;
42700;SDS011;28316;49.504;8.526;2023-01-08T05:33:41;6.57;;;2.35;;
42700;SDS011;28316;49.504;8.526;2023-01-08T05:36:07;4.65;;;2.60;;
42700;SDS011;28316;49.504;8.526;2023-01-08T05:38:36;2.92;;;2.10;;
42700;SDS011;28316;49.504;8.526;2023-01-08T05:41:02;3.83;;;1.80;;
42700;SDS011;28316;49.504;8.526;2023-01-08T05:43:29;6.35;;;1.95;;
42700;SDS011;28316;49.504;8.526;2023-01-08T05:45:58;2.90;;;1.67;;
42700;SDS011;28316;49.504;8.526;2023-01-08T05:48:26;4.23;;;1.93;;
42700;SDS011;28316;49.504;8.526;2023-01-08T05:50:53;5.35;;;2.20;;
42700;SDS011;28316;49.504;8.526;2023-01-08T05:53:19;4.78;;;1.65;;
42700;SDS011;28316;49.504;8.526;2023-01-08T05:55:45;3.55;;;1.95;;
42700;SDS011;28316;49.504;8.526;2023-01-08T05:58:11;2.15;;;1.80;;
42700;SDS011;28316;49.504;8.526;2023-01-08T06:00:37;2.88;;;1.65;;
42700;SDS011;28316;49.504;8.526;2023-01-08T06:03:03;3.30;;;1.85;;
42700;SDS011;28316;49.504;8.526;2023-01-08T06:05:30;6.68;;;2.70;;
42700;SDS011;28316;49.504;8.526;2023-01-08T06:07:57;2.92;;;1.80;;
42700;SDS011;28316;49.504;8.526;2023-01-08T06:10:23;7.72;;;2.92;;
42700;SDS011;28316;49.504;8.526;2023-01-08T06:12:50;10.43;;;2.20;;
42700;SDS011;28316;49.504;8.526;2023-01-08T06:15:16;2.92;;;1.70;;
42700;SDS011;28316;49.504;8.526;2023-01-08T06:17:42;5.63;;;2.75;;
42700;SDS011;28316;49.504;8.526;2023-01-08T06:20:08;5.70;;;2.03;;
42700;SDS011;28316;49.504;8.526;2023-01-08T06:22:35;5.18;;;1.95;;
42700;SDS011;28316;49.504;8.526;2023-01-08T06:25:01;3.88;;;1.92;;
42700;SDS011;28316;49.504;8.526;2023-01-08T06:27:27;8.57;;;2.92;;
42700;SDS011;28316;49.504;8.526;2023-01-08T06:29:53;5.10;;;2.67;;
42700;SDS011;28316;49.504;8.526;2023-01-08T06:32:19;3.55;;;1.67;;
42700;SDS011;28316;49.504;8.526;2023-01-08T06:34:45;4.53;;;2.33;;
42700;SDS011;28316;49.504;8.526;2023-01-08T06:37:10;5.90;;;2.05;;
42700;SDS011;28316;49.504;8.526;2023-01-08T06:39:36;4.50;;;2.42;;
42700;SDS011;28316;49.504;8.526;2023-01-08T06:42:02;9.52;;;3.03;;
42700;SDS011;28316;49.504;8.526;2023-01-08T06:44:28;5.07;;;2.35;;
42700;SDS011;28316;49.504;8.526;2023-01-08T06:46:53;10.38;;;1.65;;
42700;SDS011;28316;49.504;8.526;2023-01-08T06:49:19;5.03;;;2.05;;
42700;SDS011;28316;49.504;8.526;2023-01-08T06:51:46;10.88;;;2.22;;
42700;SDS011;28316;49.504;8.526;2023-01-08T06:54:11;4.18;;;2.30;;
42700;SDS011;28316;49.504;8.526;2023-01-08T06:56:37;5.47;;;1.77;;
42700;SDS011;28316;49.504;8.526;2023-01-08T06:59:03;4.57;;;2.17;;
42700;SDS011;28316;49.504;8.526;2023-01-08T07:01:29;6.40;;;2.22;;
42700;SDS011;28316;49.504;8.526;2023-01-08T07:03:55;4.35;;;2.30;;
42700;SDS011;28316;49.504;8.526;2023-01-08T07:06:21;3.47;;;1.95;;
42700;SDS011;28316;49.504;8.526;2023-01-08T07:08:47;4.28;;;2.88;;
42700;SDS011;28316;49.504;8.526;2023-01-08T07:11:13;4.55;;;2.50;;
42700;SDS011;28316;49.504;8.526;2023-01-08T07:13:40;4.18;;;2.20;;
42700;SDS011;28316;49.504;8.526;2023-01-08T07:16:09;5.53;;;2.25;;
42700;SDS011;28316;49.504;8.526;2023-01-08T07:18:37;6.25;;;1.92;;
42700;SDS011;28316;49.504;8.526;2023-01-08T07:21:04;5.25;;;2.22;;
42700;SDS011;28316;49.504;8.526;2023-01-08T07:23:31;5.22;;;2.03;;
42700;SDS011;28316;49.504;8.526;2023-01-08T07:26:01;5.43;;;2.63;;
42700;SDS011;28316;49.504;8.526;2023-01-08T07:28:28;6.03;;;2.72;;
42700;SDS011;28316;49.504;8.526;2023-01-08T07:30:54;5.75;;;2.63;;
42700;SDS011;28316;49.504;8.526;2023-01-08T07:33:19;3.78;;;1.80;;
42700;SDS011;28316;49.504;8.526;2023-01-08T07:35:54;3.40;;;2.05;;
42700;SDS011;28316;49.504;8.526;2023-01-08T07:38:20;4.55;;;2.33;;
42700;SDS011;28316;49.504;8.526;2023-01-08T07:40:47;4.43;;;1.75;;
42700;SDS011;28316;49.504;8.526;2023-01-08T07:43:13;2.80;;;1.60;;
42700;SDS011;28316;49.504;8.526;2023-01-08T07:45:39;4.43;;;2.38;;
42700;SDS011;28316;49.504;8.526;2023-01-08T07:48:05;3.65;;;1.90;;
42700;SDS011;28316;49.504;8.526;2023-01-08T07:50:31;3.50;;;1.63;;
42700;SDS011;28316;49.504;8.526;2023-01-08T07:52:58;4.18;;;1.55;;
42700;SDS011;28316;49.504;8.526;2023-01-08T07:55:25;3.83;;;1.92;;
42700;SDS011;28316;49.504;8.526;2023-01-08T07:57:52;3.28;;;1.48;;
42700;SDS011;28316;49.504;8.526;2023-01-08T08:00:18;3.10;;;1.35;;
42700;SDS011;28316;49.504;8.526;2023-01-08T08:02:44;2.78;;;2.03;;
42700;SDS011;28316;49.504;8.526;2023-01-08T08:05:10;7.85;;;2.08;;
42700;SDS011;28316;49.504;8.526;2023-01-08T08:07:36;4.10;;;1.83;;
42700;SDS011;28316;49.504;8.526;2023-01-08T08:10:02;3.53;;;1.73;;
42700;SDS011;28316;49.504;8.526;2023-01-08T08:12:29;4.93;;;2.22;;
42700;SDS011;28316;49.504;8.526;2023-01-08T08:14:55;5.47;;;2.85;;
42700;SDS011;28316;49.504;8.526;2023-01-08T08:17:21;4.78;;;2.15;;
42700;SDS011;28316;49.504;8.526;2023-01-08T08:19:46;9.32;;;2.75;;
42700;SDS011;28316;49.504;8.526;2023-01-08T08:22:12;5.20;;;3.03;;
42700;SDS011;28316;49.504;8.526;2023-01-08T08:24:38;5.20;;;2.13;;
42700;SDS011;28316;49.504;8.526;2023-01-08T08:27:04;3.83;;;2.15;;
42700;SDS011;28316;49.504;8.526;2023-01-08T08:29:30;3.67;;;2.28;;
42700;SDS011;28316;49.504;8.526;2023-01-08T08:31:56;4.43;;;1.90;;
42700;SDS011;28316;49.504;8.526;2023-01-08T08:34:21;4.55;;;2.83;;
42700;SDS011;28316;49.504;8.526;2023-01-08T08:36:47;4.75;;;2.38;;
42700;SDS011;28316;49.504;8.526;2023-01-08T08:39:13;4.53;;;2.38;;
42700;SDS011;28316;49.504;8.526;2023-01-08T08:41:40;3.03;;;1.83;;
42700;SDS011;28316;49.504;8.526;2023-01-08T08:44:06;5.18;;;2.38;;
42700;SDS011;28316;49.504;8.526;2023-01-08T08:46:33;3.42;;;2.08;;
42700;SDS011;28316;49.504;8.526;2023-01-08T08:48:59;4.82;;;2.58;;
42700;SDS011;28316;49.504;8.526;2023-01-08T08:51:25;4.95;;;2.33;;
42700;SDS011;28316;49.504;8.526;2023-01-08T08:53:51;4.35;;;2.67;;
42700;SDS011;28316;49.504;8.526;2023-01-08T08:56:17;4.10;;;2.00;;
42700;SDS011;28316;49.504;8.526;2023-01-08T08:58:43;3.70;;;2.10;;
42700;SDS011;28316;49.504;8.526;2023-01-08T09:01:09;4.43;;;2.58;;
42700;SDS011;28316;49.504;8.526;2023-01-08T09:03:35;3.92;;;2.50;;
42700;SDS011;28316;49.504;8.526;2023-01-08T09:06:02;3.90;;;2.72;;
42700;SDS011;28316;49.504;8.526;2023-01-08T09:08:28;5.05;;;2.53;;
42700;SDS011;28316;49.504;8.526;2023-01-08T09:10:54;4.85;;;2.15;;
42700;SDS011;28316;49.504;8.526;2023-01-08T09:13:20;6.25;;;2.30;;
42700;SDS011;28316;49.504;8.526;2023-01-08T09:15:46;3.28;;;1.88;;
42700;SDS011;28316;49.504;8.526;2023-01-08T09:18:11;3.78;;;1.70;;
42700;SDS011;28316;49.504;8.526;2023-01-08T09:20:37;4.35;;;2.03;;
42700;SDS011;28316;49.504;8.526;2023-01-08T09:23:03;4.72;;;1.60;;
42700;SDS011;28316;49.504;8.526;2023-01-08T09:25:29;6.20;;;2.65;;
42700;SDS011;28316;49.504;8.526;2023-01-08T09:27:59;3.53;;;2.08;;
42700;SDS011;28316;49.504;8.526;2023-01-08T09:30:27;9.63;;;2.92;;
42700;SDS011;28316;49.504;8.526;2023-01-08T09:33:00;8.30;;;2.40;;
42700;SDS011;28316;49.504;8.526;2023-01-08T09:35:27;6.63;;;2.97;;
42700;SDS011;28316;49.504;8.526;2023-01-08T09:37:53;5.55;;;1.85;;
42700;SDS011;28316;49.504;8.526;2023-01-08T09:40:25;8.05;;;2.58;;
42700;SDS011;28316;49.504;8.526;2023-01-08T09:43:18;8.18;;;2.80;;
42700;SDS011;28316;49.504;8.526;2023-01-08T09:45:51;4.95;;;2.25;;
42700;SDS011;28316;49.504;8.526;2023-01-08T09:48:21;3.90;;;1.92;;
42700;SDS011;28316;49.504;8.526;2023-01-08T09:50:55;4.38;;;2.40;;
42700;SDS011;28316;49.504;8.526;2023-01-08T09:53:21;4.38;;;2.10;;
42700;SDS011;28316;49.504;8.526;2023-01-08T09:55:53;3.22;;;2.20;;
42700;SDS011;28316;49.504;8.526;2023-01-08T10:01:27;7.38;;;2.53;;
42700;SDS011;28316;49.504;8.526;2023-01-08T10:06:35;10.23;;;2.88;;
42700;SDS011;28316;49.504;8.526;2023-01-08T10:09:01;7.13;;;2.42;;
42700;SDS011;28316;49.504;8.526;2023-01-08T10:11:29;2.92;;;1.15;;
42700;SDS011;28316;49.504;8.526;2023-01-08T10:14:04;20.92;;;8.65;;
42700;SDS011;28316;49.504;8.526;2023-01-08T10:16:41;5.88;;;2.28;;
42700;SDS011;28316;49.504;8.526;2023-01-08T10:19:27;2.65;;;1.65;;
42700;SDS011;28316;49.504;8.526;2023-01-08T10:21:53;2.60;;;1.40;;
42700;SDS011;28316;49.504;8.526;2023-01-08T10:24:34;6.60;;;1.75;;
42700;SDS011;28316;49.504;8.526;2023-01-08T10:27:04;2.78;;;1.33;;
42700;SDS011;28316;49.504;8.526;2023-01-08T10:29:41;3.10;;;1.50;;
42700;SDS011;28316;49.504;8.526;2023-01-08T10:32:08;3.30;;;1.40;;
42700;SDS011;28316;49.504;8.526;2023-01-08T10:34:51;3.05;;;1.65;;
42700;SDS011;28316;49.504;8.526;2023-01-08T10:37:36;2.13;;;1.27;;
42700;SDS011;28316;49.504;8.526;2023-01-08T10:40:23;4.15;;;1.70;;
42700;SDS011;28316;49.504;8.526;2023-01-08T10:43:03;1.27;;;0.55;;
42700;SDS011;28316;49.504;8.526;2023-01-08T10:45:57;2.05;;;0.95;;
42700;SDS011;28316;49.504;8.526;2023-01-08T10:48:31;1.67;;;0.90;;
42700;SDS011;28316;49.504;8.526;2023-01-08T10:51:26;1.95;;;1.00;;
42700;SDS011;28316;49.504;8.526;2023-01-08T10:53:55;5.80;;;1.40;;
42700;SDS011;28316;49.504;8.526;2023-01-08T10:56:29;3.13;;;1.30;;
42700;SDS011;28316;49.504;8.526;2023-01-08T10:59:16;2.05;;;1.50;;
42700;SDS011;28316;49.504;8.526;2023-01-08T11:01:47;2.10;;;0.88;;
42700;SDS011;28316;49.504;8.526;2023-01-08T11:04:23;1.63;;;0.93;;
42700;SDS011;28316;49.504;8.526;2023-01-08T11:06:56;1.58;;;0.95;;
42700;SDS011;28316;49.504;8.526;2023-01-08T11:09:38;8.02;;;1.33;;
42700;SDS011;28316;49.504;8.526;2023-01-08T11:15:04;2.97;;;1.08;;
42700;SDS011;28316;49.504;8.526;2023-01-08T11:17:44;1.70;;;0.80;;
42700;SDS011;28316;49.504;8.526;2023-01-08T11:20:26;2.20;;;1.02;;
42700;SDS011;28316;49.504;8.526;2023-01-08T11:31:23;2.22;;;1.30;;
42700;SDS011;28316;49.504;8.526;2023-01-08T11:34:27;3.40;;;1.17;;
42700;SDS011;28316;49.504;8.526;2023-01-08T11:37:26;1.23;;;0.85;;
42700;SDS011;28316;49.504;8.526;2023-01-08T11:40:11;1.10;;;0.82;;
42700;SDS011;28316;49.504;8.526;2023-01-08T11:47:59;2.85;;;0.82;;
42700;SDS011;28316;49.504;8.526;2023-01-08T11:50:55;1.92;;;0.93;;
42700;SDS011;28316;49.504;8.526;2023-01-08T11:59:12;1.17;;;0.85;;
42700;SDS011;28316;49.504;8.526;2023-01-08T12:04:54;3.03;;;1.02;;
42700;SDS011;28316;49.504;8.526;2023-01-08T12:10:29;2.45;;;1.05;;
42700;SDS011;28316;49.504;8.526;2023-01-08T12:13:13;1.10;;;0.65;;
42700;SDS011;28316;49.504;8.526;2023-01-08T12:19:36;1.05;;;0.70;;
42700;SDS011;28316;49.504;8.526;2023-01-08T12:25:21;1.25;;;0.80;;
42700;SDS011;28316;49.504;8.526;2023-01-08T12:28:22;1.40;;;0.70;;
42700;SDS011;28316;49.504;8.526;2023-01-08T12:37:43;4.70;;;1.60;;
42700;SDS011;28316;49.504;8.526;2023-01-08T12:43:13;1.58;;;0.90;;
42700;SDS011;28316;49.504;8.526;2023-01-08T12:45:46;1.08;;;0.60;;
42700;SDS011;28316;49.504;8.526;2023-01-08T12:48:20;1.02;;;0.57;;
42700;SDS011;28316;49.504;8.526;2023-01-08T12:59:36;3.42;;;0.93;;
42700;SDS011;28316;49.504;8.526;2023-01-08T13:05:13;1.27;;;0.98;;
42700;SDS011;28316;49.504;8.526;2023-01-08T13:07:43;0.67;;;0.40;;
42700;SDS011;28316;49.504;8.526;2023-01-08T13:12:57;3.55;;;1.13;;
42700;SDS011;28316;49.504;8.526;2023-01-08T13:15:26;0.65;;;0.43;;
42700;SDS011;28316;49.504;8.526;2023-01-08T13:17:55;1.15;;;0.65;;
42700;SDS011;28316;49.504;8.526;2023-01-08T13:20:27;0.57;;;0.45;;
42700;SDS011;28316;49.504;8.526;2023-01-08T13:23:00;2.58;;;0.95;;
42700;SDS011;28316;49.504;8.526;2023-01-08T13:25:29;2.60;;;0.60;;
42700;SDS011;28316;49.504;8.526;2023-01-08T13:28:04;0.90;;;0.57;;
42700;SDS011;28316;49.504;8.526;2023-01-08T13:31:05;0.82;;;0.40;;
42700;SDS011;28316;49.504;8.526;2023-01-08T13:33:38;2.08;;;1.02;;
42700;SDS011;28316;49.504;8.526;2023-01-08T13:38:38;0.88;;;0.60;;
42700;SDS011;28316;49.504;8.526;2023-01-08T13:41:04;5.18;;;1.02;;
42700;SDS011;28316;49.504;8.526;2023-01-08T13:43:47;1.13;;;0.57;;
42700;SDS011;28316;49.504;8.526;2023-01-08T13:46:16;0.63;;;0.50;;
42700;SDS011;28316;49.504;8.526;2023-01-08T13:51:47;1.95;;;0.80;;
42700;SDS011;28316;49.504;8.526;2023-01-08T13:54:18;1.08;;;0.60;;
42700;SDS011;28316;49.504;8.526;2023-01-08T13:56:53;1.27;;;1.02;;
42700;SDS011;28316;49.504;8.526;2023-01-08T14:02:23;0.73;;;0.50;;
42700;SDS011;28316;49.504;8.526;2023-01-08T14:04:55;0.88;;;0.50;;
42700;SDS011;28316;49.504;8.526;2023-01-08T14:07:24;0.80;;;0.47;;
42700;SDS011;28316;49.504;8.526;2023-01-08T14:09:51;0.47;;;0.35;;
42700;SDS011;28316;49.504;8.526;2023-01-08T14:12:17;0.63;;;0.50;;
42700;SDS011;28316;49.504;8.526;2023-01-08T14:14:55;0.52;;;0.43;;
42700;SDS011;28316;49.504;8.526;2023-01-08T14:17:25;0.40;;;0.30;;
42700;SDS011;28316;49.504;8.526;2023-01-08T14:19:56;1.05;;;0.63;;
42700;SDS011;28316;49.504;8.526;2023-01-08T14:22:28;1.85;;;0.47;;
42700;SDS011;28316;49.504;8.526;2023-01-08T14:24:59;3.33;;;0.68;;
42700;SDS011;28316;49.504;8.526;2023-01-08T14:27:31;1.35;;;0.63;;
42700;SDS011;28316;49.504;8.526;2023-01-08T14:29:59;1.58;;;0.80;;
42700;SDS011;28316;49.504;8.526;2023-01-08T14:32:26;1.55;;;0.88;;
42700;SDS011;28316;49.504;8.526;2023-01-08T14:34:54;0.70;;;0.60;;
42700;SDS011;28316;49.504;8.526;2023-01-08T14:37:23;2.55;;;0.80;;
42700;SDS011;28316;49.504;8.526;2023-01-08T14:39:49;1.00;;;0.40;;
42700;SDS011;28316;49.504;8.526;2023-01-08T14:42:32;1.00;;;0.50;;
42700;SDS011;28316;49.504;8.526;2023-01-08T14:45:18;0.77;;;0.40;;
42700;SDS011;28316;49.504;8.526;2023-01-08T14:47:52;0.45;;;0.40;;
42700;SDS011;28316;49.504;8.526;2023-01-08T14:50:24;1.50;;;0.70;;
42700;SDS011;28316;49.504;8.526;2023-01-08T14:53:09;1.02;;;0.52;;
42700;SDS011;28316;49.504;8.526;2023-01-08T14:55:58;0.98;;;0.65;;
42700;SDS011;28316;49.504;8.526;2023-01-08T14:58:25;0.98;;;0.65;;
42700;SDS011;28316;49.504;8.526;2023-01-08T15:00:58;0.52;;;0.40;;
42700;SDS011;28316;49.504;8.526;2023-01-08T15:06:00;0.20;;;0.20;;
42700;SDS011;28316;49.504;8.526;2023-01-08T15:08:34;1.20;;;0.55;;
42700;SDS011;28316;49.504;8.526;2023-01-08T15:13:43;0.38;;;0.30;;
42700;SDS011;28316;49.504;8.526;2023-01-08T15:19:11;1.20;;;0.73;;
42700;SDS011;28316;49.504;8.526;2023-01-08T15:21:44;0.65;;;0.32;;
42700;SDS011;28316;49.504;8.526;2023-01-08T15:24:26;0.30;;;0.22;;
42700;SDS011;28316;49.504;8.526;2023-01-08T15:26:58;1.88;;;0.80;;
42700;SDS011;28316;49.504;8.526;2023-01-08T15:29:34;0.95;;;0.43;;
42700;SDS011;28316;49.504;8.526;2023-01-08T15:34:40;2.00;;;0.50;;
42700;SDS011;28316;49.504;8.526;2023-01-08T15:37:07;0.82;;;0.50;;
42700;SDS011;28316;49.504;8.526;2023-01-08T15:39:33;0.38;;;0.30;;
42700;SDS011;28316;49.504;8.526;2023-01-08T15:42:09;1.88;;;0.68;;
42700;SDS011;28316;49.504;8.526;2023-01-08T15:45:05;0.90;;;0.47;;
42700;SDS011;28316;49.504;8.526;2023-01-08T15:47:52;1.05;;;0.65;;
42700;SDS011;28316;49.504;8.526;2023-01-08T15:50:18;1.85;;;0.75;;
42700;SDS011;28316;49.504;8.526;2023-01-08T15:52:44;1.08;;;0.75;;
42700;SDS011;28316;49.504;8.526;2023-01-08T15:55:18;0.85;;;0.45;;
42700;SDS011;28316;49.504;8.526;2023-01-08T15:57:46;4.07;;;0.70;;
42700;SDS011;28316;49.504;8.526;2023-01-08T16:00:13;1.17;;;0.60;;
42700;SDS011;28316;49.504;8.526;2023-01-08T16:02:41;1.67;;;0.85;;
42700;SDS011;28316;49.504;8.526;2023-01-08T16:05:08;0.70;;;0.52;;
42700;SDS011;28316;49.504;8.526;2023-01-08T16:07:35;1.08;;;0.60;;
42700;SDS011;28316;49.504;8.526;2023-01-08T16:10:01;1.38;;;0.52;;
42700;SDS011;28316;49.504;8.526;2023-01-08T16:12:28;2.83;;;1.00;;
42700;SDS011;28316;49.504;8.526;2023-01-08T16:14:53;2.10;;;0.88;;
42700;SDS011;28316;49.504;8.526;2023-01-08T16:17:19;0.98;;;0.77;;
42700;SDS011;28316;49.504;8.526;2023-01-08T16:19:44;1.23;;;0.68;;
42700;SDS011;28316;49.504;8.526;2023-01-08T16:22:10;0.93;;;0.35;;
42700;SDS011;28316;49.504;8.526;2023-01-08T16:24:36;0.57;;;0.45;;
42700;SDS011;28316;49.504;8.526;2023-01-08T16:27:01;2.70;;;1.25;;
42700;SDS011;28316;49.504;8.526;2023-01-08T16:29:27;1.77;;;0.70;;
42700;SDS011;28316;49.504;8.526;2023-01-08T16:31:53;1.77;;;0.63;;
42700;SDS011;28316;49.504;8.526;2023-01-08T16:34:20;3.78;;;1.15;;
42700;SDS011;28316;49.504;8.526;2023-01-08T16:36:46;2.72;;;0.77;;
42700;SDS011;28316;49.504;8.526;2023-01-08T16:39:12;2.10;;;1.23;;
42700;SDS011;28316;49.504;8.526;2023-01-08T16:41:38;0.93;;;0.60;;
42700;SDS011;28316;49.504;8.526;2023-01-08T16:44:04;1.33;;;0.50;;
42700;SDS011;28316;49.504;8.526;2023-01-08T16:46:30;2.65;;;1.10;;
42700;SDS011;28316;49.504;8.526;2023-01-08T16:48:56;2.45;;;0.73;;
42700;SDS011;28316;49.504;8.526;2023-01-08T16:51:21;2.15;;;1.05;;
42700;SDS011;28316;49.504;8.526;2023-01-08T16:53:49;2.08;;;0.75;;
42700;SDS011;28316;49.504;8.526;2023-01-08T16:56:18;1.10;;;0.68;;
42700;SDS011;28316;49.504;8.526;2023-01-08T16:58:43;1.60;;;1.20;;
42700;SDS011;28316;49.504;8.526;2023-01-08T17:01:09;6.40;;;1.05;;